Current Conditions
Clear
Conditions




Pressure
29.94 (inHG) - 1013.92 (mb)
Visibility

10.0 (mimiles) - 16.1 (km)
   Temperature
73  °F
23°C
66  °F
Dewpoint
78  %
 Humidity
   Wind Speed
17  mph
15  kts
27  km/h
7.6  m/s
   Wind Direction
 190°
Due South
   Airport Data
KMYR
Location Myrtle Beach International 2 mi (3.22 km)
Metar :KMYR 281956Z 19015G24KT 10SM CLR 23/19 A2994 RMK AO2 SLP138 T02330189
Sat 28th March 15:56 pm
   Raw Metar Info
Raw METAR is the most common format in the world for the transmission of observational weather data. It is highly standardized through the International Civil Aviation Organization (ICAO), which allows it to be understood throughout most of the world.
   API Info
Data Provided by
https://www.checkwx.com/weather/KMYR
   © Info
CSS/SVG/PHP scripts were developed by weather34.com for use in the weather34 template © 2015-2020

Guide Info provided by Metar-Wikipedia